Time;durP1;ratioP1;P1;durP2;ratioP2;P2;SDS_P1;SDS_P2;PMS_P1;PMS_P2;Temp;Humidity;BMP_temperature;BMP_pressure;BME280_temperature;BME280_humidity;BME280_pressure;Samples;Min_cycle;Max_cycle;Signal;HPM_P1;HPM_P2
2022/08/10 00:00:25;;;;;;;6.55;3.13;;;;;;;;;;4966575;28;20193;-68
2022/08/10 00:03:06;;;;;;;5.80;3.08;;;;;;;;;;4963129;28;20046;-68
2022/08/10 00:05:33;;;;;;;4.50;2.70;;;;;;;;;;4965613;28;20371;-67
2022/08/10 00:07:59;;;;;;;5.30;3.03;;;;;;;;;;4963703;28;20051;-69
2022/08/10 00:10:26;;;;;;;6.43;3.20;;;;;;;;;;4962894;28;20047;-67
2022/08/10 00:12:52;;;;;;;6.10;3.22;;;;;;;;;;4961624;28;20042;-69
2022/08/10 00:15:20;;;;;;;7.78;2.78;;;;;;;;;;4964863;28;20177;-68
2022/08/10 00:17:46;;;;;;;4.93;2.80;;;;;;;;;;4964956;28;20043;-66
2022/08/10 00:20:12;;;;;;;3.95;2.80;;;;;;;;;;4962780;28;20047;-67
2022/08/10 00:22:39;;;;;;;7.72;3.10;;;;;;;;;;4964963;28;20410;-67
2022/08/10 00:25:06;;;;;;;8.63;2.78;;;;;;;;;;4966693;28;20094;-69
2022/08/10 00:27:32;;;;;;;5.53;2.70;;;;;;;;;;4963103;28;20047;-66
2022/08/10 00:29:59;;;;;;;3.85;2.65;;;;;;;;;;4967251;28;20119;-69
2022/08/10 00:32:24;;;;;;;6.95;3.00;;;;;;;;;;4967329;28;20456;-74
2022/08/10 00:34:51;;;;;;;6.72;2.70;;;;;;;;;;4966053;28;20038;-66
2022/08/10 00:37:17;;;;;;;5.13;2.92;;;;;;;;;;4967705;28;20124;-67
2022/08/10 00:39:44;;;;;;;4.50;2.70;;;;;;;;;;4967389;28;20148;-66
2022/08/10 00:42:12;;;;;;;6.65;2.97;;;;;;;;;;4965601;28;20097;-66
2022/08/10 00:44:43;;;;;;;5.38;2.70;;;;;;;;;;4965487;28;20055;-67
2022/08/10 00:47:11;;;;;;;7.00;2.78;;;;;;;;;;4966914;28;20054;-67
2022/08/10 00:49:37;;;;;;;9.05;2.97;;;;;;;;;;4979452;28;20069;-66
2022/08/10 00:52:04;;;;;;;8.13;2.65;;;;;;;;;;4964625;28;20121;-66
2022/08/10 00:54:30;;;;;;;7.38;2.58;;;;;;;;;;4965861;28;20050;-65
2022/08/10 00:56:57;;;;;;;8.45;3.17;;;;;;;;;;4965589;28;20054;-65
2022/08/10 00:59:23;;;;;;;5.88;2.60;;;;;;;;;;4964246;28;20047;-66
2022/08/10 01:01:49;;;;;;;6.38;2.97;;;;;;;;;;4966159;28;20070;-66
2022/08/10 01:04:14;;;;;;;5.38;2.58;;;;;;;;;;4968920;28;20046;-66
2022/08/10 01:06:48;;;;;;;4.85;2.47;;;;;;;;;;4968176;28;20126;-66
2022/08/10 01:09:24;;;;;;;5.05;2.45;;;;;;;;;;4967000;28;20043;-65
2022/08/10 01:12:13;;;;;;;4.25;2.83;;;;;;;;;;4967426;28;20150;-65
2022/08/10 01:14:57;;;;;;;4.57;2.58;;;;;;;;;;4967702;28;20423;-68
2022/08/10 01:17:23;;;;;;;5.75;2.60;;;;;;;;;;4968573;28;20054;-65
2022/08/10 01:20:05;;;;;;;6.60;3.10;;;;;;;;;;4964257;28;20105;-66
2022/08/10 01:23:09;;;;;;;8.45;2.83;;;;;;;;;;4963604;28;20055;-65
2022/08/10 01:25:38;;;;;;;6.95;2.88;;;;;;;;;;4965806;28;20133;-67
2022/08/10 01:28:19;;;;;;;3.83;2.53;;;;;;;;;;4966651;28;20122;-66
2022/08/10 01:30:46;;;;;;;4.63;2.80;;;;;;;;;;4966448;28;20035;-66
2022/08/10 01:33:23;;;;;;;4.60;2.50;;;;;;;;;;4967929;28;20054;-64
2022/08/10 01:35:52;;;;;;;6.18;2.50;;;;;;;;;;4963780;28;20045;-64
2022/08/10 01:38:23;;;;;;;6.53;2.70;;;;;;;;;;4979927;28;20264;-67
2022/08/10 01:41:05;;;;;;;6.00;2.67;;;;;;;;;;4965522;28;20042;-65
2022/08/10 01:43:35;;;;;;;5.43;2.28;;;;;;;;;;4966369;28;20125;-64
2022/08/10 01:46:04;;;;;;;8.65;2.53;;;;;;;;;;4963810;28;20043;-66
2022/08/10 01:48:35;;;;;;;7.00;2.53;;;;;;;;;;4964457;28;20055;-65
2022/08/10 01:51:16;;;;;;;5.55;2.75;;;;;;;;;;4963522;28;20055;-67
2022/08/10 01:53:50;;;;;;;7.32;2.63;;;;;;;;;;4965156;28;20039;-64
2022/08/10 01:56:19;;;;;;;3.35;2.28;;;;;;;;;;4969138;28;20046;-68
2022/08/10 01:58:49;;;;;;;4.82;2.53;;;;;;;;;;4963656;28;20497;-65
2022/08/10 02:01:19;;;;;;;5.45;2.65;;;;;;;;;;4965508;28;20065;-65
2022/08/10 02:03:48;;;;;;;6.05;2.47;;;;;;;;;;4965943;28;20047;-66
2022/08/10 02:06:16;;;;;;;4.45;2.30;;;;;;;;;;4964712;28;20058;-64
2022/08/10 02:08:44;;;;;;;6.40;2.75;;;;;;;;;;4964789;28;20345;-65
2022/08/10 02:11:11;;;;;;;6.57;2.42;;;;;;;;;;4964603;28;20614;-67
2022/08/10 02:13:40;;;;;;;6.40;2.85;;;;;;;;;;4968926;28;20054;-65
2022/08/10 02:16:07;;;;;;;6.40;2.90;;;;;;;;;;4963819;28;20067;-65
2022/08/10 02:18:34;;;;;;;9.18;2.85;;;;;;;;;;4963627;28;20130;-66
2022/08/10 02:21:03;;;;;;;5.82;3.10;;;;;;;;;;4963478;28;20051;-68
2022/08/10 02:23:32;;;;;;;7.70;3.67;;;;;;;;;;4965456;28;20141;-66
2022/08/10 02:26:00;;;;;;;9.13;3.42;;;;;;;;;;4965386;28;20046;-65
2022/08/10 02:28:29;;;;;;;7.22;3.47;;;;;;;;;;4966466;28;20130;-65
2022/08/10 02:31:17;;;;;;;8.68;3.72;;;;;;;;;;4962865;28;20117;-66
2022/08/10 02:33:47;;;;;;;10.77;4.25;;;;;;;;;;4970205;28;20050;-66
2022/08/10 02:36:14;;;;;;;9.80;4.55;;;;;;;;;;4969395;28;20090;-67
2022/08/10 02:38:45;;;;;;;11.00;4.55;;;;;;;;;;4969129;28;20055;-67
2022/08/10 02:41:17;;;;;;;10.15;4.75;;;;;;;;;;4969180;28;20153;-68
2022/08/10 02:43:52;;;;;;;12.15;5.18;;;;;;;;;;4969007;28;20053;-65
2022/08/10 02:46:27;;;;;;;8.63;5.30;;;;;;;;;;4966557;28;20485;-66
2022/08/10 02:49:04;;;;;;;15.77;4.80;;;;;;;;;;4973150;28;20054;-65
2022/08/10 02:51:54;;;;;;;13.43;4.80;;;;;;;;;;4968347;28;20061;-66
2022/08/10 02:54:23;;;;;;;9.52;4.68;;;;;;;;;;4967670;28;20070;-67
2022/08/10 02:57:08;;;;;;;7.88;5.10;;;;;;;;;;4969723;28;20058;-67
2022/08/10 02:59:41;;;;;;;8.73;4.15;;;;;;;;;;4969234;28;20497;-64
2022/08/10 03:02:12;;;;;;;9.43;4.53;;;;;;;;;;4970636;28;20065;-65
2022/08/10 03:04:47;;;;;;;12.05;4.43;;;;;;;;;;4973994;28;20473;-65
2022/08/10 03:07:16;;;;;;;8.68;4.72;;;;;;;;;;4969482;28;20046;-66
2022/08/10 03:09:44;;;;;;;9.63;4.60;;;;;;;;;;4969936;28;20122;-67
2022/08/10 03:12:13;;;;;;;8.45;4.75;;;;;;;;;;4970249;28;20408;-67
2022/08/10 03:14:40;;;;;;;13.25;5.07;;;;;;;;;;4967675;28;20055;-68
2022/08/10 03:17:09;;;;;;;11.23;5.28;;;;;;;;;;4969257;28;20042;-68
2022/08/10 03:19:36;;;;;;;9.52;5.07;;;;;;;;;;4969417;28;20050;-69
2022/08/10 03:22:03;;;;;;;9.82;4.85;;;;;;;;;;4973702;28;20049;-66
2022/08/10 03:24:31;;;;;;;12.95;4.65;;;;;;;;;;4969453;28;20560;-67
2022/08/10 03:26:57;;;;;;;8.38;4.90;;;;;;;;;;4968853;28;20212;-67
2022/08/10 03:29:24;;;;;;;10.10;4.82;;;;;;;;;;4969512;28;20058;-66
2022/08/10 03:31:50;;;;;;;13.50;4.60;;;;;;;;;;4968644;28;20043;-66
2022/08/10 03:34:18;;;;;;;7.68;4.65;;;;;;;;;;4968972;28;20468;-66
2022/08/10 03:36:44;;;;;;;13.18;4.32;;;;;;;;;;4968420;28;20496;-67
2022/08/10 03:39:11;;;;;;;8.00;4.15;;;;;;;;;;4969627;28;20494;-66
2022/08/10 03:41:54;;;;;;;8.60;4.18;;;;;;;;;;4968300;28;20061;-65
2022/08/10 03:44:24;;;;;;;8.73;4.45;;;;;;;;;;4968174;28;20370;-68
2022/08/10 03:46:51;;;;;;;8.90;4.50;;;;;;;;;;4967876;28;20651;-65
2022/08/10 03:49:19;;;;;;;9.20;4.45;;;;;;;;;;4967557;28;20057;-65
2022/08/10 03:51:48;;;;;;;9.90;4.47;;;;;;;;;;4965629;28;20627;-66
2022/08/10 03:54:17;;;;;;;7.22;4.60;;;;;;;;;;4969827;28;20510;-65
2022/08/10 03:56:43;;;;;;;7.78;5.03;;;;;;;;;;4968681;28;20113;-65
2022/08/10 03:59:11;;;;;;;10.10;4.85;;;;;;;;;;4968820;28;20057;-67
2022/08/10 04:01:37;;;;;;;12.70;6.07;;;;;;;;;;4967592;28;20053;-65
2022/08/10 04:04:03;;;;;;;10.68;6.97;;;;;;;;;;4968278;28;20039;-73
2022/08/10 04:06:29;;;;;;;14.85;7.00;;;;;;;;;;4968366;28;20134;-65
2022/08/10 04:08:57;;;;;;;14.05;7.85;;;;;;;;;;4969813;28;20483;-68
2022/08/10 04:11:23;;;;;;;20.48;8.27;;;;;;;;;;4970462;28;20126;-67
2022/08/10 04:13:49;;;;;;;15.07;7.80;;;;;;;;;;4970856;28;20050;-68
2022/08/10 04:16:15;;;;;;;14.30;7.47;;;;;;;;;;4969757;28;20516;-68
2022/08/10 04:18:41;;;;;;;12.32;7.20;;;;;;;;;;4968808;28;20046;-67
2022/08/10 04:21:25;;;;;;;11.98;6.30;;;;;;;;;;4970209;28;20466;-65
2022/08/10 04:23:53;;;;;;;12.75;6.45;;;;;;;;;;4970772;28;20568;-65
2022/08/10 04:26:19;;;;;;;14.13;6.65;;;;;;;;;;4970525;28;20054;-64
2022/08/10 04:28:45;;;;;;;14.00;6.43;;;;;;;;;;4966687;28;20045;-64
2022/08/10 04:31:14;;;;;;;17.55;6.75;;;;;;;;;;4969227;28;20053;-64
2022/08/10 04:33:45;;;;;;;17.52;7.50;;;;;;;;;;4967670;28;20054;-66
2022/08/10 04:36:12;;;;;;;11.65;7.70;;;;;;;;;;4967332;28;20055;-64
2022/08/10 04:38:39;;;;;;;20.08;7.40;;;;;;;;;;4968643;28;20130;-64
2022/08/10 04:41:06;;;;;;;16.85;7.57;;;;;;;;;;4967137;28;20345;-66
2022/08/10 04:43:32;;;;;;;22.70;9.93;;;;;;;;;;4967544;28;20500;-66
2022/08/10 04:45:58;;;;;;;17.80;9.02;;;;;;;;;;4967442;28;20055;-66
2022/08/10 04:48:25;;;;;;;19.55;9.48;;;;;;;;;;4967160;28;20418;-64
2022/08/10 04:50:51;;;;;;;21.45;10.38;;;;;;;;;;4965921;28;20049;-66
2022/08/10 04:53:16;;;;;;;18.65;9.35;;;;;;;;;;4966129;28;20043;-66
2022/08/10 04:55:42;;;;;;;17.13;9.13;;;;;;;;;;4964679;28;20511;-67
2022/08/10 04:58:08;;;;;;;18.65;8.65;;;;;;;;;;4966352;28;20038;-69
2022/08/10 05:00:34;;;;;;;20.55;8.43;;;;;;;;;;4965883;28;20054;-65
2022/08/10 05:03:00;;;;;;;14.90;7.72;;;;;;;;;;4965061;28;20121;-66
2022/08/10 05:05:26;;;;;;;12.93;5.65;;;;;;;;;;4966324;28;20625;-68
2022/08/10 05:07:52;;;;;;;11.43;5.28;;;;;;;;;;4965583;28;20043;-67
2022/08/10 05:10:18;;;;;;;9.20;4.70;;;;;;;;;;4966035;28;20059;-65
2022/08/10 05:12:45;;;;;;;8.50;3.92;;;;;;;;;;4965302;28;20408;-66
2022/08/10 05:15:13;;;;;;;8.10;4.50;;;;;;;;;;4966189;28;20054;-64
2022/08/10 05:17:41;;;;;;;9.05;4.30;;;;;;;;;;4965849;28;20050;-66
2022/08/10 05:20:09;;;;;;;8.88;4.15;;;;;;;;;;4964973;28;20515;-67
2022/08/10 05:22:40;;;;;;;8.82;4.07;;;;;;;;;;4965349;28;20069;-66
2022/08/10 05:25:10;;;;;;;8.00;4.32;;;;;;;;;;4966391;28;20404;-66
2022/08/10 05:27:36;;;;;;;8.30;3.92;;;;;;;;;;4966159;28;20035;-64
2022/08/10 05:30:04;;;;;;;6.32;3.75;;;;;;;;;;4968400;28;20050;-67
2022/08/10 05:32:31;;;;;;;8.85;4.10;;;;;;;;;;4967275;28;20054;-67
2022/08/10 05:34:57;;;;;;;7.03;3.97;;;;;;;;;;4965978;28;20035;-66
2022/08/10 05:37:23;;;;;;;10.70;4.20;;;;;;;;;;4970220;28;20148;-69
2022/08/10 05:39:50;;;;;;;7.00;3.85;;;;;;;;;;4966148;28;21010;-65
2022/08/10 05:42:16;;;;;;;7.15;3.85;;;;;;;;;;4963887;28;20101;-66
2022/08/10 05:44:45;;;;;;;12.60;3.50;;;;;;;;;;4964672;28;20043;-67
2022/08/10 05:47:12;;;;;;;13.07;3.95;;;;;;;;;;4965088;28;20062;-67
2022/08/10 05:49:38;;;;;;;11.18;4.10;;;;;;;;;;4966117;28;20102;-66
2022/08/10 05:52:04;;;;;;;5.57;3.42;;;;;;;;;;4964185;28;20343;-66
2022/08/10 05:54:30;;;;;;;12.25;3.72;;;;;;;;;;4965592;28;20050;-65
2022/08/10 05:56:56;;;;;;;10.15;3.80;;;;;;;;;;4966339;28;20045;-67
2022/08/10 05:59:33;;;;;;;5.57;3.85;;;;;;;;;;4964035;28;20528;-68
2022/08/10 06:02:03;;;;;;;8.75;3.33;;;;;;;;;;4965855;28;20053;-67
2022/08/10 06:04:36;;;;;;;9.55;3.67;;;;;;;;;;4963480;28;20564;-66
2022/08/10 06:07:04;;;;;;;7.38;3.58;;;;;;;;;;4964532;28;20050;-68
2022/08/10 06:09:31;;;;;;;7.57;3.50;;;;;;;;;;4965964;28;20101;-68
2022/08/10 06:11:59;;;;;;;18.08;3.92;;;;;;;;;;4965292;28;20138;-66
2022/08/10 06:17:12;;;;;;;10.23;3.28;;;;;;;;;;4964595;28;20105;-67
2022/08/10 06:19:40;;;;;;;7.47;3.63;;;;;;;;;;4965504;28;20513;-67
2022/08/10 06:22:06;;;;;;;7.90;3.88;;;;;;;;;;4965537;28;20046;-68
2022/08/10 06:24:39;;;;;;;9.95;3.72;;;;;;;;;;4964438;28;20082;-67
2022/08/10 06:27:06;;;;;;;8.18;3.72;;;;;;;;;;4965129;28;20078;-67
2022/08/10 06:29:35;;;;;;;6.43;3.40;;;;;;;;;;4969969;28;20055;-66
2022/08/10 06:32:04;;;;;;;9.68;3.42;;;;;;;;;;4966107;28;20071;-66
2022/08/10 06:34:32;;;;;;;11.73;4.25;;;;;;;;;;4963702;28;20110;-66
2022/08/10 06:37:03;;;;;;;7.88;3.92;;;;;;;;;;4958862;28;20047;-65
2022/08/10 06:39:29;;;;;;;15.95;4.05;;;;;;;;;;4965735;28;20737;-65
2022/08/10 06:42:19;;;;;;;13.18;3.80;;;;;;;;;;4960509;28;20535;-67
2022/08/10 06:44:59;;;;;;;19.80;4.63;;;;;;;;;;4965591;28;20121;-65
2022/08/10 06:47:33;;;;;;;12.05;3.92;;;;;;;;;;4965512;28;20047;-65
2022/08/10 06:50:06;;;;;;;29.98;5.57;;;;;;;;;;4960138;28;20058;-66
2022/08/10 06:52:34;;;;;;;15.63;4.63;;;;;;;;;;4962677;28;20058;-65
2022/08/10 06:55:01;;;;;;;14.60;4.57;;;;;;;;;;4965252;28;20055;-66
2022/08/10 06:57:31;;;;;;;13.55;3.92;;;;;;;;;;4965093;28;20108;-65
2022/08/10 06:59:59;;;;;;;19.02;3.85;;;;;;;;;;4959087;28;20101;-67
2022/08/10 07:02:32;;;;;;;10.18;4.05;;;;;;;;;;4963157;28;20405;-67
2022/08/10 07:05:02;;;;;;;15.35;4.00;;;;;;;;;;4959936;28;20501;-67
2022/08/10 07:07:31;;;;;;;14.43;3.33;;;;;;;;;;4965360;28;20055;-67
2022/08/10 07:09:59;;;;;;;10.82;3.58;;;;;;;;;;4965251;28;20047;-67
2022/08/10 07:12:26;;;;;;;13.88;3.42;;;;;;;;;;4964730;28;20054;-67
2022/08/10 07:14:53;;;;;;;7.88;3.60;;;;;;;;;;4966079;28;20038;-67
2022/08/10 07:17:22;;;;;;;8.25;3.65;;;;;;;;;;4968574;28;20074;-67
2022/08/10 07:19:53;;;;;;;7.18;3.53;;;;;;;;;;4967158;28;20062;-66
2022/08/10 07:22:23;;;;;;;8.07;3.20;;;;;;;;;;4967585;28;20070;-67
2022/08/10 07:24:50;;;;;;;10.90;3.47;;;;;;;;;;4966253;28;20151;-67
2022/08/10 07:27:18;;;;;;;8.55;3.72;;;;;;;;;;4967407;28;20133;-68
2022/08/10 07:29:45;;;;;;;5.45;3.47;;;;;;;;;;4971917;28;20077;-68
2022/08/10 07:32:12;;;;;;;8.95;4.03;;;;;;;;;;4967497;28;20053;-67
2022/08/10 07:34:39;;;;;;;9.50;4.32;;;;;;;;;;4968369;28;20497;-67
2022/08/10 07:37:07;;;;;;;11.20;4.88;;;;;;;;;;4966584;28;20042;-71
2022/08/10 07:39:40;;;;;;;15.70;5.10;;;;;;;;;;4967935;28;20711;-67
2022/08/10 07:42:08;;;;;;;15.77;4.05;;;;;;;;;;4964606;28;20645;-67
2022/08/10 07:44:38;;;;;;;7.18;3.45;;;;;;;;;;4979441;28;20556;-67
2022/08/10 07:47:07;;;;;;;8.27;2.90;;;;;;;;;;4968372;28;20050;-67
2022/08/10 07:49:38;;;;;;;8.95;3.20;;;;;;;;;;4967159;28;20050;-70
2022/08/10 07:52:09;;;;;;;9.65;3.13;;;;;;;;;;4965115;28;20047;-67
2022/08/10 07:54:44;;;;;;;9.15;3.08;;;;;;;;;;4966900;28;20116;-68
2022/08/10 07:57:21;;;;;;;7.20;3.00;;;;;;;;;;4964751;28;20057;-67
2022/08/10 07:59:53;;;;;;;11.73;3.42;;;;;;;;;;4966251;28;20062;-68
2022/08/10 08:02:47;;;;;;;10.00;2.88;;;;;;;;;;4962627;28;20389;-67
2022/08/10 08:05:15;;;;;;;10.02;2.80;;;;;;;;;;4964896;28;20058;-67
2022/08/10 08:07:42;;;;;;;10.38;2.80;;;;;;;;;;4962628;28;20051;-68
2022/08/10 08:10:13;;;;;;;7.75;2.70;;;;;;;;;;4967810;28;20058;-69
2022/08/10 08:12:41;;;;;;;7.55;2.80;;;;;;;;;;4961779;28;20121;-65
2022/08/10 08:15:12;;;;;;;12.13;3.10;;;;;;;;;;4964994;28;20450;-66
2022/08/10 08:17:39;;;;;;;9.18;3.25;;;;;;;;;;4965761;28;20047;-72
2022/08/10 08:20:06;;;;;;;7.40;3.03;;;;;;;;;;4962171;28;20059;-68
2022/08/10 08:22:34;;;;;;;6.05;2.92;;;;;;;;;;4966685;28;20182;-68
2022/08/10 08:25:00;;;;;;;11.80;2.90;;;;;;;;;;4957627;28;20038;-64
2022/08/10 08:27:28;;;;;;;6.03;2.90;;;;;;;;;;4965555;28;20046;-67
2022/08/10 08:29:54;;;;;;;11.65;3.28;;;;;;;;;;4962554;28;20050;-69
2022/08/10 08:32:23;;;;;;;11.27;3.25;;;;;;;;;;4959451;28;20043;-65
2022/08/10 08:34:54;;;;;;;11.55;2.90;;;;;;;;;;4965514;28;20050;-68
2022/08/10 08:37:23;;;;;;;6.70;2.97;;;;;;;;;;4964627;28;20379;-69
2022/08/10 08:39:49;;;;;;;9.40;2.97;;;;;;;;;;4965046;28;20484;-68
2022/08/10 08:42:27;;;;;;;10.93;3.22;;;;;;;;;;4963321;28;20131;-69
2022/08/10 08:45:22;;;;;;;14.43;2.92;;;;;;;;;;4967873;28;20137;-69
2022/08/10 08:48:34;;;;;;;9.18;2.90;;;;;;;;;;4967000;28;20523;-67
2022/08/10 08:51:39;;;;;;;5.70;2.88;;;;;;;;;;4965950;28;20208;-67
2022/08/10 08:54:26;;;;;;;7.65;3.05;;;;;;;;;;4969302;28;20134;-69
2022/08/10 08:57:25;;;;;;;6.22;2.80;;;;;;;;;;4967266;28;20055;-67
2022/08/10 09:00:05;;;;;;;8.80;3.38;;;;;;;;;;4982287;28;20050;-68
2022/08/10 09:03:25;;;;;;;6.63;3.00;;;;;;;;;;4957041;28;20059;-70
2022/08/10 09:06:06;;;;;;;11.63;3.20;;;;;;;;;;5000747;28;20076;-70
2022/08/10 09:08:57;;;;;;;6.32;2.90;;;;;;;;;;4989368;28;20081;-70
2022/08/10 09:11:57;;;;;;;9.85;2.88;;;;;;;;;;4992273;28;20136;-70
2022/08/10 09:14:48;;;;;;;9.43;2.78;;;;;;;;;;4992408;28;20132;-69
2022/08/10 09:17:31;;;;;;;10.23;2.47;;;;;;;;;;4993476;28;20104;-70
2022/08/10 09:20:25;;;;;;;6.55;2.30;;;;;;;;;;4975472;28;20052;-71
2022/08/10 09:22:59;;;;;;;5.43;2.50;;;;;;;;;;4991574;28;20052;-69
2022/08/10 09:25:33;;;;;;;9.40;2.78;;;;;;;;;;4993706;28;20622;-71
2022/08/10 09:28:04;;;;;;;7.82;2.80;;;;;;;;;;4992213;28;20049;-69
2022/08/10 09:30:39;;;;;;;7.43;2.72;;;;;;;;;;4993465;28;20754;-69
2022/08/10 09:33:15;;;;;;;6.70;2.55;;;;;;;;;;4993728;28;20104;-68
2022/08/10 09:36:04;;;;;;;10.30;3.15;;;;;;;;;;4992720;28;20045;-70
2022/08/10 09:39:10;;;;;;;9.50;3.33;;;;;;;;;;4989503;28;20078;-76
2022/08/10 09:41:56;;;;;;;6.10;2.80;;;;;;;;;;4974146;28;20069;-72
2022/08/10 09:44:42;;;;;;;10.60;2.92;;;;;;;;;;4951111;28;20374;-71
2022/08/10 09:47:42;;;;;;;8.90;3.10;;;;;;;;;;4954692;28;20066;-70
2022/08/10 09:50:14;;;;;;;8.65;3.47;;;;;;;;;;4946414;28;20055;-70
2022/08/10 09:52:52;;;;;;;7.85;3.30;;;;;;;;;;4948151;28;20119;-69
2022/08/10 09:55:39;;;;;;;5.43;2.83;;;;;;;;;;4962253;28;20046;-71
2022/08/10 09:58:33;;;;;;;6.05;2.83;;;;;;;;;;4950233;28;20069;-71
2022/08/10 10:01:11;;;;;;;8.70;2.93;;;;;;;;;;4953980;28;20126;-71
2022/08/10 10:03:40;;;;;;;12.20;3.20;;;;;;;;;;4951761;28;20108;-70
2022/08/10 10:06:33;;;;;;;6.45;2.88;;;;;;;;;;4951204;28;20055;-71
2022/08/10 10:09:17;;;;;;;5.37;2.70;;;;;;;;;;4960230;28;20057;-68
2022/08/10 10:11:58;;;;;;;6.90;2.90;;;;;;;;;;4954560;28;20043;-70
2022/08/10 10:15:19;;;;;;;7.45;2.67;;;;;;;;;;4949395;28;20042;-70
2022/08/10 10:17:40;;;;;;;4.57;2.75;;;;;;;;;;4950230;28;20130;-68
2022/08/10 10:20:22;;;;;;;5.90;2.50;;;;;;;;;;4952993;28;20516;-70
2022/08/10 10:23:17;;;;;;;10.48;3.15;;;;;;;;;;4951774;28;20047;-72
2022/08/10 10:25:49;;;;;;;5.95;3.00;;;;;;;;;;4953408;28;20047;-72
2022/08/10 10:28:34;;;;;;;7.85;2.92;;;;;;;;;;4947350;28;20055;-69
2022/08/10 10:31:10;;;;;;;6.53;2.90;;;;;;;;;;4952195;28;20061;-72
2022/08/10 10:33:48;;;;;;;7.82;2.55;;;;;;;;;;4956802;28;20915;-70
2022/08/10 10:36:16;;;;;;;6.88;2.47;;;;;;;;;;4953466;28;20042;-70
2022/08/10 10:38:45;;;;;;;11.02;2.67;;;;;;;;;;4953872;28;20035;-71
2022/08/10 10:41:22;;;;;;;12.30;3.22;;;;;;;;;;4958241;28;20069;-69
2022/08/10 10:44:26;;;;;;;4.72;2.45;;;;;;;;;;4953755;28;20382;-75
2022/08/10 10:47:15;;;;;;;6.05;2.30;;;;;;;;;;4954514;28;20047;-66
2022/08/10 10:49:58;;;;;;;11.07;2.40;;;;;;;;;;4952357;28;20462;-70
2022/08/10 10:52:59;;;;;;;5.88;2.67;;;;;;;;;;4956105;28;20044;-70
2022/08/10 10:55:36;;;;;;;5.95;2.80;;;;;;;;;;4955924;28;20060;-68
2022/08/10 10:58:24;;;;;;;8.82;2.58;;;;;;;;;;4954694;28;20055;-69
2022/08/10 11:01:19;;;;;;;10.35;3.00;;;;;;;;;;4956428;28;20046;-66
2022/08/10 11:04:17;;;;;;;4.80;2.40;;;;;;;;;;4966553;28;20058;-73
2022/08/10 11:07:09;;;;;;;7.68;2.70;;;;;;;;;;4956186;28;20047;-72
2022/08/10 11:09:58;;;;;;;6.57;2.60;;;;;;;;;;4953133;28;20065;-67
2022/08/10 11:12:32;;;;;;;5.47;2.60;;;;;;;;;;4957428;28;20122;-67
2022/08/10 11:15:03;;;;;;;3.95;2.20;;;;;;;;;;4955851;28;20747;-72
2022/08/10 11:17:33;;;;;;;8.60;3.05;;;;;;;;;;4954668;28;20101;-72
2022/08/10 11:20:17;;;;;;;4.85;2.50;;;;;;;;;;4971989;28;20046;-67
2022/08/10 11:23:03;;;;;;;7.00;2.63;;;;;;;;;;4955336;28;20051;-71
2022/08/10 11:25:35;;;;;;;8.75;2.42;;;;;;;;;;4953933;28;20153;-72
2022/08/10 11:28:15;;;;;;;6.57;2.50;;;;;;;;;;4953530;28;20134;-72
2022/08/10 11:30:49;;;;;;;8.57;2.70;;;;;;;;;;4957711;28;20057;-72
2022/08/10 11:33:45;;;;;;;5.05;2.60;;;;;;;;;;4958669;28;20500;-74
2022/08/10 11:36:29;;;;;;;5.07;2.70;;;;;;;;;;4953291;28;20150;-72
2022/08/10 11:39:18;;;;;;;5.72;2.38;;;;;;;;;;4952057;28;20105;-71
2022/08/10 11:41:44;;;;;;;6.80;2.65;;;;;;;;;;4953574;28;20188;-68
2022/08/10 11:44:29;;;;;;;5.68;2.70;;;;;;;;;;4957263;28;20208;-70
2022/08/10 11:47:10;;;;;;;6.25;2.58;;;;;;;;;;4954959;28;20810;-70
2022/08/10 11:49:52;;;;;;;7.57;2.38;;;;;;;;;;4953496;28;22003;-70
2022/08/10 11:52:35;;;;;;;6.07;2.50;;;;;;;;;;4950799;28;20513;-70
2022/08/10 11:55:12;;;;;;;5.93;2.58;;;;;;;;;;4953600;28;20051;-72
2022/08/10 11:57:39;;;;;;;6.55;2.45;;;;;;;;;;4967099;28;20082;-72
2022/08/10 12:00:06;;;;;;;5.85;2.78;;;;;;;;;;4949161;28;20784;-72
2022/08/10 12:02:39;;;;;;;5.13;3.17;;;;;;;;;;4954805;28;20047;-75
2022/08/10 12:05:14;;;;;;;5.93;3.10;;;;;;;;;;4952887;28;20078;-73
2022/08/10 12:07:46;;;;;;;8.90;3.03;;;;;;;;;;4950585;28;20055;-71
2022/08/10 12:10:13;;;;;;;7.70;2.85;;;;;;;;;;4952518;28;20392;-72
2022/08/10 12:12:54;;;;;;;8.88;3.13;;;;;;;;;;4955716;28;20059;-74
2022/08/10 12:15:36;;;;;;;7.15;2.90;;;;;;;;;;4955032;28;20051;-77
2022/08/10 12:18:12;;;;;;;5.35;2.78;;;;;;;;;;4953534;28;20192;-70
2022/08/10 12:20:42;;;;;;;4.75;2.40;;;;;;;;;;4956806;28;20406;-73
2022/08/10 12:23:26;;;;;;;5.88;2.28;;;;;;;;;;4954821;28;20161;-71
2022/08/10 12:26:03;;;;;;;4.78;2.70;;;;;;;;;;4953481;28;20114;-72
2022/08/10 12:28:52;;;;;;;4.63;2.63;;;;;;;;;;4946140;28;20117;-72
2022/08/10 12:31:42;;;;;;;3.72;2.50;;;;;;;;;;4953224;28;20069;-74
2022/08/10 12:34:30;;;;;;;6.82;2.40;;;;;;;;;;4953326;28;20543;-72
2022/08/10 12:37:06;;;;;;;5.57;2.60;;;;;;;;;;4953582;28;20061;-75
2022/08/10 12:39:50;;;;;;;5.15;2.90;;;;;;;;;;4949523;28;20065;-75
2022/08/10 12:42:55;;;;;;;6.35;2.50;;;;;;;;;;4955465;28;20070;-73
2022/08/10 12:45:34;;;;;;;;;;;;;;;;;;4954934;28;20588;-74
2022/08/10 12:48:28;;;;;;;5.53;2.53;;;;;;;;;;4952433;28;19970;-72
2022/08/10 12:51:09;;;;;;;5.97;2.53;;;;;;;;;;4953191;28;20479;-73
2022/08/10 12:54:03;;;;;;;9.05;2.70;;;;;;;;;;4955742;28;20587;-74
2022/08/10 12:56:33;;;;;;;4.97;2.17;;;;;;;;;;4949949;28;20054;-74
2022/08/10 12:59:04;;;;;;;7.90;2.60;;;;;;;;;;4946149;28;20062;-72
2022/08/10 13:01:32;;;;;;;7.35;2.60;;;;;;;;;;4952689;28;20600;-69
2022/08/10 13:04:04;;;;;;;11.82;2.80;;;;;;;;;;4953410;28;20150;-74
2022/08/10 13:06:32;;;;;;;10.50;2.40;;;;;;;;;;4951528;28;20576;-74
2022/08/10 13:09:07;;;;;;;6.15;2.65;;;;;;;;;;4948498;28;20535;-75
2022/08/10 13:11:49;;;;;;;6.22;2.63;;;;;;;;;;4951456;28;20166;-73
2022/08/10 13:14:34;;;;;;;6.30;2.22;;;;;;;;;;4952987;28;20047;-76
2022/08/10 13:17:02;;;;;;;5.40;2.28;;;;;;;;;;4955220;28;20508;-74
2022/08/10 13:19:43;;;;;;;9.15;2.50;;;;;;;;;;4957452;28;20472;-75
2022/08/10 13:22:13;;;;;;;7.45;2.50;;;;;;;;;;4950983;28;20066;-73
2022/08/10 13:24:43;;;;;;;5.88;2.45;;;;;;;;;;4954473;28;20136;-71
2022/08/10 13:27:13;;;;;;;5.72;2.17;;;;;;;;;;4955862;28;20552;-73
2022/08/10 13:29:49;;;;;;;6.05;2.17;;;;;;;;;;4951714;28;20067;-72
2022/08/10 13:32:25;;;;;;;3.55;2.00;;;;;;;;;;4953818;28;20221;-73
2022/08/10 13:34:55;;;;;;;7.25;2.13;;;;;;;;;;4951707;28;20056;-73
2022/08/10 13:37:27;;;;;;;5.93;2.28;;;;;;;;;;4949573;28;20059;-73
2022/08/10 13:39:59;;;;;;;5.28;2.20;;;;;;;;;;4948706;28;20130;-74
2022/08/10 13:42:31;;;;;;;8.00;2.50;;;;;;;;;;4955066;28;20045;-75
2022/08/10 13:45:03;;;;;;;7.55;2.03;;;;;;;;;;4946129;28;20055;-74
2022/08/10 13:47:33;;;;;;;8.55;2.10;;;;;;;;;;4947282;28;20047;-78
2022/08/10 13:50:09;;;;;;;4.50;1.88;;;;;;;;;;4948244;28;20763;-75
2022/08/10 13:52:37;;;;;;;6.60;2.00;;;;;;;;;;4947448;28;20061;-77
2022/08/10 13:55:13;;;;;;;7.60;2.10;;;;;;;;;;4952825;28;20050;-76
2022/08/10 13:57:44;;;;;;;5.57;1.77;;;;;;;;;;4946031;28;20141;-74
2022/08/10 14:00:11;;;;;;;4.95;1.50;;;;;;;;;;4947666;28;20658;-72
2022/08/10 14:02:41;;;;;;;6.60;2.38;;;;;;;;;;4950708;28;20059;-74
2022/08/10 14:05:08;;;;;;;5.07;1.88;;;;;;;;;;4952064;28;20051;-76
2022/08/10 14:07:39;;;;;;;3.25;1.63;;;;;;;;;;4948947;28;20534;-74
2022/08/10 14:10:07;;;;;;;4.95;1.70;;;;;;;;;;4957865;28;20081;-75
2022/08/10 14:12:36;;;;;;;6.57;1.95;;;;;;;;;;4951891;28;20497;-80
2022/08/10 14:15:06;;;;;;;2.90;1.45;;;;;;;;;;4952331;28;20756;-72
2022/08/10 14:17:32;;;;;;;6.35;1.80;;;;;;;;;;4949273;28;20054;-72
2022/08/10 14:19:59;;;;;;;4.45;1.80;;;;;;;;;;4952359;28;20058;-73
2022/08/10 14:22:26;;;;;;;2.55;1.60;;;;;;;;;;4949366;28;20164;-76
2022/08/10 14:24:51;;;;;;;4.97;1.80;;;;;;;;;;4955293;28;20400;-72
2022/08/10 14:27:19;;;;;;;5.05;1.67;;;;;;;;;;4950852;28;20051;-69
2022/08/10 14:29:51;;;;;;;4.15;1.77;;;;;;;;;;4953862;28;20054;-70
2022/08/10 14:32:22;;;;;;;4.55;1.77;;;;;;;;;;4954831;28;20481;-72
2022/08/10 14:34:52;;;;;;;9.52;2.00;;;;;;;;;;4955920;28;20605;-73
2022/08/10 14:37:29;;;;;;;2.90;1.85;;;;;;;;;;4956545;28;20117;-72
2022/08/10 14:40:12;;;;;;;5.20;1.77;;;;;;;;;;4956479;28;20065;-73
2022/08/10 14:42:49;;;;;;;5.40;1.58;;;;;;;;;;4956202;28;20089;-74
2022/08/10 14:45:22;;;;;;;2.97;1.30;;;;;;;;;;4951983;28;20485;-71
2022/08/10 14:47:51;;;;;;;4.30;1.60;;;;;;;;;;4953647;28;20070;-75
2022/08/10 14:50:20;;;;;;;6.53;1.67;;;;;;;;;;4958346;28;20141;-72
2022/08/10 14:52:47;;;;;;;3.10;1.45;;;;;;;;;;4953820;28;20039;-71
2022/08/10 14:55:17;;;;;;;4.15;1.60;;;;;;;;;;4953846;28;20484;-73
2022/08/10 14:57:44;;;;;;;6.13;1.50;;;;;;;;;;4952112;28;20417;-72
2022/08/10 15:00:12;;;;;;;4.88;1.92;;;;;;;;;;4951251;28;20142;-71
2022/08/10 15:02:45;;;;;;;3.00;1.33;;;;;;;;;;4954022;28;20362;-71
2022/08/10 15:05:16;;;;;;;4.35;1.70;;;;;;;;;;4951388;28;20190;-72
2022/08/10 15:07:45;;;;;;;3.25;1.40;;;;;;;;;;4953383;28;20055;-73
2022/08/10 15:10:17;;;;;;;2.83;1.52;;;;;;;;;;4952727;28;20094;-73
2022/08/10 15:12:45;;;;;;;7.13;1.67;;;;;;;;;;4956977;28;20420;-73
2022/08/10 15:15:13;;;;;;;6.68;1.70;;;;;;;;;;4953414;28;20055;-74
2022/08/10 15:17:55;;;;;;;5.78;1.70;;;;;;;;;;4949657;28;20055;-74
2022/08/10 15:20:24;;;;;;;2.85;1.52;;;;;;;;;;4952432;28;20050;-76